ADDS TAF Board (Experimental) INFO Settings
IDs: Format: Expanded Condensed

KPHX - Phoenix/Sky Harbor, AZ, US

Issued at 0522 UTC 28 May 2015
Updated at: 0553 UTC 28 May 2015
Time0451Z 28/06Z 28/07Z 28/08Z 28/09Z 28/10Z 28/11Z 28/12Z 28/13Z 28/14Z 28/15Z 28/16Z 28/17Z 28/18Z
Type OBS PRVL PRVL PRVL PRVL PRVL PRVL PRVL PRVL PRVL PRVL PRVL PRVL PRVL
VIS 10 >6 >6 >6 >6 >6 >6 >6 >6 >6 >6 >6 >6 >6
CIG -- -- -- -- -- -- -- -- -- -- -- -- -- --
Cover FEW FEW FEW FEW FEW FEW SKC SKC SKC SKC SKC SKC SKC SKC
FltCat VFR VFR VFR VFR VFR VFR VFR VFR VFR VFR VFR VFR VFR VFR
WX -- -- -- -- -- -- -- -- -- -- -- -- -- --
WDir 230 270 270 270 270 270 100 100 100 100 100 100 100 100
WSpd 5 5 5 5 5 5 5 5 5 5 5 5 5 5
WGst -- -- -- -- -- -- -- -- -- -- -- -- -- --
R07/25
XWnd -3 -0 -0 -0 -0 -0 -1 -1 -1 -1 -1 -1 -1 -1
HWnd -4 -5 -5 -5 -5 -5 5 5 5 5 5 5 5 5
R08/26
XWnd -3 -0 -0 -0 -0 -0 -1 -1 -1 -1 -1 -1 -1 -1
HWnd -4 -5 -5 -5 -5 -5 5 5 5 5 5 5 5 5

NOTE: TEMPO conditions in [brackets]. Keep in mind TEMPO conditions might be better (lower impact) than prevailing conditions.

Raw TAF
KPHX 280522Z 2806/2906 27005KT P6SM FEW250
  FM281100 10005KT P6SM SKC
  FM282100 28008KT P6SM SKC


Raw METAR
KPHX 280451Z 23005KT 10SM FEW210 28/01 A2985 RMK AO2 SLP089 T02830011
KPHX 280351Z 30005KT 10SM FEW210 32/M02 A2982 RMK AO2 SLP081 T03221022
KPHX 280251Z 29008KT 10SM SCT250 BKN290 33/M03 A2981 RMK AO2 SLP076 T03281028 53004

METAR Board
Radar Display
Forecast Discussion

TAF Board Legend

Potential Impact
Threat None Slight Moderate High
Visibility (sm) ≥5.1 5.1>X≥3 3>X≥1 <1
Ceiling (100 ft) ≥30.1 30.1>X≥10 10>X≥5 <5
Wind Speed (kt) <10 10≤X<20 20≤X<30 ≥30
Wind Gust (kt) <15 15≤X<25 25≤X<35 ≥35
Weather No Wx Reported VCTS,-TS,-FZRA,SN TS,FZRA +TS,+FZRA,+SN